createdAt,value
2019-05-14T00:02:23.566Z,103937.43
2019-05-14T00:04:53.780Z,103938.75
2019-05-14T00:07:23.904Z,103944.86
2019-05-14T00:09:54.221Z,103938.32
2019-05-14T00:12:24.362Z,103932.36
2019-05-14T00:14:54.563Z,103931.27
2019-05-14T00:17:24.781Z,103930.88
2019-05-14T00:20:06.366Z,103926.74
2019-05-14T00:22:26.806Z,103922.96
2019-05-14T00:24:56.982Z,103926.55
2019-05-14T00:27:27.178Z,103929.38
2019-05-14T00:29:57.374Z,103928.03
2019-05-14T00:32:27.571Z,103925.30
2019-05-14T00:34:57.932Z,103925.98
2019-05-14T00:37:32.136Z,103919.67
2019-05-14T00:40:02.399Z,103916.41
2019-05-14T00:42:32.521Z,103932.50
2019-05-14T00:45:02.733Z,103941.26
2019-05-14T00:47:35.143Z,103934.95
2019-05-14T00:50:06.016Z,103932.76
2019-05-14T00:52:38.471Z,103926.12
2019-05-14T00:55:08.935Z,103929.47
2019-05-14T00:57:42.803Z,103922.55
2019-05-14T01:00:13.206Z,103924.48
2019-05-14T01:02:43.575Z,103921.73
2019-05-14T01:05:13.703Z,103917.55
2019-05-14T01:07:43.831Z,103917.67
2019-05-14T01:10:14.388Z,103924.36
2019-05-14T01:12:44.550Z,103922.05
2019-05-14T01:15:15.350Z,103928.39
2019-05-14T01:17:45.832Z,103923.75
2019-05-14T01:20:17.026Z,103920.80
2019-05-14T01:22:48.880Z,103922.91
2019-05-14T01:25:23.328Z,103915.70
2019-05-14T01:27:52.977Z,103917.05
2019-05-14T01:30:23.077Z,103914.56
2019-05-14T01:32:53.175Z,103914.20
2019-05-14T01:35:23.361Z,103915.35
2019-05-14T01:37:53.523Z,103920.69
2019-05-14T01:40:23.661Z,103921.27
2019-05-14T01:42:53.784Z,103917.17
2019-05-14T01:45:28.175Z,103915.75
2019-05-14T01:47:55.837Z,103910.41
2019-05-14T01:50:25.949Z,103909.48
2019-05-14T01:52:56.089Z,103897.84
2019-05-14T01:55:26.395Z,103892.77
2019-05-14T01:57:56.476Z,103900.23
2019-05-14T02:00:26.725Z,103891.77
2019-05-14T02:02:56.869Z,103894.62
2019-05-14T02:05:28.228Z,103890.25
2019-05-14T02:07:58.285Z,103894.62
2019-05-14T02:10:28.460Z,103891.33
2019-05-14T02:12:58.587Z,103884.79
2019-05-14T02:15:37.086Z,103880.39
2019-05-14T02:18:02.388Z,103876.59
2019-05-14T02:20:34.062Z,103881.27
2019-05-14T02:23:04.303Z,103885.40
2019-05-14T02:25:34.552Z,103875.48
2019-05-14T02:28:04.688Z,103874.13
2019-05-14T02:30:48.113Z,103872.30
2019-05-14T02:33:09.295Z,103869.52
2019-05-14T02:35:39.807Z,103875.61
2019-05-14T02:38:10.568Z,103870.78
2019-05-14T02:40:40.777Z,103869.42
2019-05-14T02:43:10.935Z,103869.12
2019-05-14T02:46:00.609Z,103864.81
2019-05-14T02:48:13.088Z,103862.09
2019-05-14T02:50:44.554Z,103861.14
2019-05-14T02:53:14.715Z,103847.82
2019-05-14T02:55:44.870Z,103855.98
2019-05-14T02:58:15.072Z,103851.48
2019-05-14T03:00:45.575Z,103844.89
2019-05-14T03:03:15.740Z,103844.83
2019-05-14T03:05:49.243Z,103846.49
2019-05-14T03:08:19.754Z,103840.47
2019-05-14T03:10:50.826Z,103841.46
2019-05-14T03:13:21.282Z,103845.45
2019-05-14T03:15:51.547Z,103837.88
2019-05-14T03:18:21.721Z,103842.34
2019-05-14T03:20:51.902Z,103840.09
2019-05-14T03:23:23.258Z,103837.81
2019-05-14T03:25:53.670Z,103834.02
2019-05-14T03:28:23.788Z,103825.22
2019-05-14T03:30:54.008Z,103827.22
2019-05-14T03:33:24.232Z,103819.02
2019-05-14T03:36:01.292Z,103820.45
2019-05-14T03:38:29.320Z,103808.73
2019-05-14T03:41:00.249Z,103820.47
2019-05-14T03:43:32.632Z,103825.58
2019-05-14T03:46:02.755Z,103821.67
2019-05-14T03:48:32.891Z,103825.33
2019-05-14T03:51:03.024Z,103823.03
2019-05-14T03:53:52.144Z,103819.23
2019-05-14T03:56:10.137Z,103833.41
2019-05-14T03:58:39.413Z,103838.22
2019-05-14T04:01:24.045Z,103843.55
2019-05-14T04:03:54.313Z,103838.91
2019-05-14T04:06:29.889Z,103826.55
2019-05-14T04:09:00.920Z,103824.28
2019-05-14T04:11:34.741Z,103822.98
2019-05-14T04:14:09.571Z,103812.52
2019-05-14T04:16:40.049Z,103819.16
2019-05-14T04:19:12.185Z,103822.04
2019-05-14T04:21:43.649Z,103815.75
2019-05-14T04:24:15.128Z,103814.70
2019-05-14T04:26:58.342Z,103813.41
2019-05-14T04:29:25.208Z,103820.66
2019-05-14T04:32:00.149Z,103806.14
2019-05-14T04:34:30.864Z,103805.21
2019-05-14T04:37:01.048Z,103798.86
2019-05-14T04:39:31.207Z,103800.48
2019-05-14T04:42:01.409Z,103795.20
2019-05-14T04:44:40.380Z,103796.25
2019-05-14T04:47:26.315Z,103798.63
2019-05-14T04:49:43.069Z,103799.84
2019-05-14T04:52:13.245Z,103799.63
2019-05-14T04:54:43.651Z,103794.41
2019-05-14T04:57:13.994Z,103794.50
2019-05-14T04:59:44.150Z,103798.08
2019-05-14T05:02:14.319Z,103802.58
2019-05-14T05:04:44.546Z,103803.61
2019-05-14T05:07:14.914Z,103800.91
2019-05-14T05:09:49.865Z,103805.33
2019-05-14T05:12:19.694Z,103807.83
2019-05-14T05:14:50.261Z,103810.55
2019-05-14T05:17:20.365Z,103799.62
2019-05-14T05:19:51.728Z,103808.21
2019-05-14T05:22:22.025Z,103799.52
2019-05-14T05:24:52.273Z,103797.38
2019-05-14T05:27:22.441Z,103802.39
2019-05-14T05:29:52.584Z,103796.13
2019-05-14T05:32:22.741Z,103795.63
2019-05-14T05:34:52.890Z,103797.34
2019-05-14T05:37:24.782Z,103800.91
2019-05-14T05:39:58.238Z,103802.28
2019-05-14T05:42:29.466Z,103792.23
2019-05-14T05:44:59.745Z,103787.61
2019-05-14T05:47:29.849Z,103795.89
2019-05-14T05:50:00.062Z,103795.11
2019-05-14T05:52:30.228Z,103803.34
2019-05-14T05:55:00.323Z,103797.03
2019-05-14T05:57:30.486Z,103798.95
2019-05-14T06:00:00.702Z,103801.94
2019-05-14T06:02:31.896Z,103805.23
2019-05-14T06:05:02.362Z,103804.66
2019-05-14T06:07:32.476Z,103804.41
2019-05-14T06:10:02.945Z,103813.16
2019-05-14T06:12:33.225Z,103808.77
2019-05-14T06:15:03.439Z,103817.83
2019-05-14T06:17:33.591Z,103812.90
2019-05-14T06:20:04.396Z,103808.20
2019-05-14T06:22:34.529Z,103803.23
2019-05-14T06:25:10.568Z,103800.94
2019-05-14T06:27:41.443Z,103796.45
2019-05-14T06:30:12.266Z,103803.88
2019-05-14T06:32:42.487Z,103804.61
2019-05-14T06:35:12.760Z,103806.98
2019-05-14T06:37:42.944Z,103797.12
2019-05-14T06:40:13.164Z,103797.83
2019-05-14T06:42:43.324Z,103805.77
2019-05-14T06:45:13.504Z,103808.62
2019-05-14T06:47:43.664Z,103804.50
2019-05-14T06:50:13.810Z,103810.73
2019-05-14T06:52:43.991Z,103817.94
2019-05-14T06:55:14.360Z,103810.34
2019-05-14T06:57:44.576Z,103812.98
2019-05-14T07:00:15.065Z,103811.12
2019-05-14T07:02:45.330Z,103818.16
2019-05-14T07:05:15.656Z,103815.49
2019-05-14T07:07:49.079Z,103813.45
2019-05-14T07:10:19.671Z,103812.95
2019-05-14T07:12:50.092Z,103808.00
2019-05-14T07:15:20.270Z,103820.41
2019-05-14T07:17:50.405Z,103831.27
2019-05-14T07:20:20.626Z,103822.63
2019-05-14T07:22:50.792Z,103821.47
2019-05-14T07:25:20.920Z,103830.36
2019-05-14T07:27:51.147Z,103825.78
2019-05-14T07:30:22.067Z,103821.58
2019-05-14T07:32:52.240Z,103821.38
2019-05-14T07:35:22.556Z,103821.64
2019-05-14T07:37:52.971Z,103817.11
2019-05-14T07:40:23.129Z,103831.77
2019-05-14T07:42:53.314Z,103825.22
2019-05-14T07:45:23.452Z,103817.09
2019-05-14T07:47:54.636Z,103804.88
2019-05-14T07:50:24.773Z,103807.66
2019-05-14T07:52:55.038Z,103801.27
2019-05-14T07:55:25.111Z,103796.94
2019-05-14T07:57:55.280Z,103787.59
2019-05-14T08:00:25.491Z,103793.74
2019-05-14T08:02:58.068Z,103782.32
2019-05-14T08:05:28.752Z,103775.01
2019-05-14T08:07:58.989Z,103773.00
2019-05-14T08:10:30.160Z,103772.97
2019-05-14T08:13:00.299Z,103772.51
2019-05-14T08:15:33.259Z,103786.83
2019-05-14T08:18:03.455Z,103768.80
2019-05-14T08:20:33.693Z,103773.14
2019-05-14T08:23:03.900Z,103777.31
2019-05-14T08:25:34.560Z,103775.27
2019-05-14T08:28:04.747Z,103775.49
2019-05-14T08:30:34.930Z,103770.42
2019-05-14T08:33:05.070Z,103777.08
2019-05-14T08:35:35.544Z,103778.45
2019-05-14T08:38:11.392Z,103770.58
2019-05-14T08:40:38.228Z,103772.60
2019-05-14T08:43:08.771Z,103766.17
2019-05-14T08:45:39.036Z,103774.38
2019-05-14T08:48:09.369Z,103773.16
2019-05-14T08:50:42.262Z,103761.47
2019-05-14T08:53:12.463Z,103763.25
2019-05-14T08:55:44.261Z,103758.73
2019-05-14T08:58:15.602Z,103766.47
2019-05-14T09:00:48.079Z,103765.64
2019-05-14T09:03:19.310Z,103757.52
2019-05-14T09:05:50.633Z,103755.33
2019-05-14T09:08:20.798Z,103742.72
2019-05-14T09:10:50.940Z,103754.16
2019-05-14T09:13:21.122Z,103744.42
2019-05-14T09:15:51.351Z,103751.41
2019-05-14T09:18:21.562Z,103749.19
2019-05-14T09:20:51.771Z,103745.74
2019-05-14T09:23:21.979Z,103745.37
2019-05-14T09:25:53.414Z,103741.49
2019-05-14T09:28:23.667Z,103727.58
2019-05-14T09:30:53.898Z,103727.48
2019-05-14T09:33:24.455Z,103720.34
2019-05-14T09:36:09.909Z,103714.52
2019-05-14T09:38:29.133Z,103718.42
2019-05-14T09:41:10.575Z,103711.59
2019-05-14T09:43:32.067Z,103707.64
2019-05-14T09:46:02.297Z,103701.88
2019-05-14T09:48:32.538Z,103706.15
2019-05-14T09:51:02.707Z,103703.06
2019-05-14T09:53:33.969Z,103701.64
2019-05-14T09:56:04.140Z,103702.14
2019-05-14T09:58:34.336Z,103700.13
2019-05-14T10:01:04.589Z,103711.30
2019-05-14T10:03:34.773Z,103704.98
2019-05-14T10:06:09.476Z,103703.58
2019-05-14T10:08:39.176Z,103692.35
2019-05-14T10:11:09.422Z,103689.73
2019-05-14T10:13:40.739Z,103687.02
2019-05-14T10:16:10.905Z,103689.25
2019-05-14T10:18:41.061Z,103681.75
2019-05-14T10:21:12.418Z,103679.36
2019-05-14T10:23:43.900Z,103681.06
2019-05-14T10:26:15.112Z,103687.76
2019-05-14T10:28:45.320Z,103684.22
2019-05-14T10:31:18.112Z,103681.27
2019-05-14T10:33:48.561Z,103675.97
2019-05-14T10:36:19.746Z,103678.25
2019-05-14T10:38:49.979Z,103665.20
2019-05-14T10:41:23.291Z,103654.83
2019-05-14T10:43:53.537Z,103653.61
2019-05-14T10:46:24.548Z,103650.44
2019-05-14T10:48:55.325Z,103638.94
2019-05-14T10:51:25.583Z,103640.36
2019-05-14T10:53:55.762Z,103630.22
2019-05-14T10:56:26.001Z,103637.22
2019-05-14T10:58:58.428Z,103640.50
2019-05-14T11:01:28.576Z,103640.27
2019-05-14T11:03:58.771Z,103652.77
2019-05-14T11:06:29.453Z,103645.09
2019-05-14T11:08:59.748Z,103641.10
2019-05-14T11:11:29.906Z,103632.45
2019-05-14T11:14:00.082Z,103633.82
2019-05-14T11:16:30.215Z,103639.03
2019-05-14T11:19:00.598Z,103629.59
2019-05-14T11:21:32.061Z,103623.45
2019-05-14T11:24:02.207Z,103614.42
2019-05-14T11:26:32.400Z,103618.84
2019-05-14T11:29:02.595Z,103622.52
2019-05-14T11:31:34.347Z,103616.84
2019-05-14T11:34:04.630Z,103605.80
2019-05-14T11:36:38.916Z,103606.56
2019-05-14T11:39:09.519Z,103596.56
2019-05-14T11:41:39.873Z,103590.53
2019-05-14T11:44:09.997Z,103585.99
2019-05-14T11:46:50.710Z,103581.64
2019-05-14T11:49:12.429Z,103574.83
2019-05-14T11:54:14.601Z,103552.61
2019-05-14T11:56:44.837Z,103556.16
2019-05-14T11:59:15.037Z,103565.34
2019-05-14T12:01:45.225Z,103560.64
2019-05-14T12:04:15.391Z,103561.02
2019-05-14T12:06:45.578Z,103561.93
2019-05-14T12:09:15.830Z,103559.26
2019-05-14T12:11:46.842Z,103566.23
2019-05-14T12:14:19.111Z,103557.97
2019-05-14T12:16:49.794Z,103561.06
2019-05-14T12:19:20.160Z,103557.30
2019-05-14T12:22:05.879Z,103551.20
2019-05-14T12:24:23.852Z,103556.36
2019-05-14T12:26:58.609Z,103555.20
2019-05-14T12:29:29.322Z,103544.49
2019-05-14T12:31:59.570Z,103540.12
2019-05-14T12:34:29.905Z,103534.91
2019-05-14T12:37:00.145Z,103532.22
2019-05-14T12:39:30.535Z,103536.39
2019-05-14T12:42:00.992Z,103527.79
2019-05-14T12:44:31.248Z,103524.28
2019-05-14T12:47:01.405Z,103512.00
2019-05-14T12:49:31.576Z,103503.84
2019-05-14T12:52:17.981Z,103504.35
2019-05-14T12:54:34.754Z,103507.95
2019-05-14T12:57:06.551Z,103511.36
2019-05-14T12:59:38.179Z,103516.30
2019-05-14T13:02:09.852Z,103512.95
2019-05-14T13:04:40.124Z,103516.44
2019-05-14T13:07:10.319Z,103514.78
2019-05-14T13:09:40.469Z,103507.13
2019-05-14T13:12:11.449Z,103504.27
2019-05-14T13:14:41.788Z,103494.94
2019-05-14T13:17:13.641Z,103480.19
2019-05-14T13:19:43.832Z,103479.25
2019-05-14T13:22:17.909Z,103477.48
2019-05-14T13:24:45.955Z,103470.61
2019-05-14T13:27:18.917Z,103470.07
2019-05-14T13:29:48.932Z,103480.61
2019-05-14T13:32:21.474Z,103487.76
2019-05-14T13:34:51.652Z,103482.83
2019-05-14T13:37:21.868Z,103485.76
2019-05-14T13:39:53.097Z,103474.70
2019-05-14T13:42:23.384Z,103470.53
2019-05-14T13:44:53.551Z,103470.87
2019-05-14T13:47:23.734Z,103463.50
2019-05-14T13:49:53.930Z,103472.73
2019-05-14T13:52:24.116Z,103465.98
2019-05-14T13:54:54.236Z,103475.22
2019-05-14T13:57:24.396Z,103472.55
2019-05-14T13:59:54.552Z,103462.11
2019-05-14T14:02:27.945Z,103463.87
2019-05-14T14:04:58.825Z,103446.41
2019-05-14T14:07:28.576Z,103439.42
2019-05-14T14:09:59.232Z,103435.88
2019-05-14T14:12:32.501Z,103433.51
2019-05-14T14:15:01.490Z,103437.23
2019-05-14T14:17:33.255Z,103437.43
2019-05-14T14:20:03.550Z,103428.22
2019-05-14T14:22:33.998Z,103418.55
2019-05-14T14:25:04.348Z,103422.97
2019-05-14T14:27:34.642Z,103423.91
2019-05-14T14:30:05.380Z,103405.55
2019-05-14T14:32:35.637Z,103416.84
2019-05-14T14:35:08.736Z,103406.92
2019-05-14T14:37:39.617Z,103410.66
2019-05-14T14:40:11.258Z,103406.56
2019-05-14T14:42:41.614Z,103402.86
2019-05-14T14:45:12.486Z,103396.78
2019-05-14T14:47:42.673Z,103383.54
2019-05-14T14:50:13.025Z,103385.41
2019-05-14T14:52:43.297Z,103385.44
2019-05-14T14:55:13.549Z,103376.63
2019-05-14T14:57:46.518Z,103377.23
2019-05-14T15:00:19.341Z,103382.63
2019-05-14T15:02:49.704Z,103375.87
2019-05-14T15:05:21.716Z,103369.73
2019-05-14T15:07:52.051Z,103362.67
2019-05-14T15:10:22.293Z,103366.16
2019-05-14T15:12:52.504Z,103368.17
2019-05-14T15:15:22.713Z,103365.28
2019-05-14T15:17:52.891Z,103367.58
2019-05-14T15:20:22.983Z,103360.99
2019-05-14T15:22:53.240Z,103350.79
2019-05-14T15:25:23.445Z,103352.20
2019-05-14T15:27:53.691Z,103345.27
2019-05-14T15:30:23.951Z,103334.71
2019-05-14T15:32:55.041Z,103333.31
2019-05-14T15:35:25.277Z,103336.62
2019-05-14T15:37:55.744Z,103341.92
2019-05-14T15:40:28.945Z,103338.50
2019-05-14T15:43:02.022Z,103326.11
2019-05-14T15:45:32.354Z,103327.23
2019-05-14T15:48:04.263Z,103334.87
2019-05-14T15:50:34.526Z,103325.33
2019-05-14T15:53:04.730Z,103332.23
2019-05-14T15:55:35.599Z,103329.88
2019-05-14T15:58:08.543Z,103316.42
2019-05-14T16:00:38.513Z,103320.20
2019-05-14T16:03:09.393Z,103313.81
2019-05-14T16:05:41.683Z,103307.78
2019-05-14T16:08:11.911Z,103302.75
2019-05-14T16:10:42.102Z,103297.91
2019-05-14T16:13:13.814Z,103297.31
2019-05-14T16:15:43.985Z,103301.84
2019-05-14T16:18:18.605Z,103299.90
2019-05-14T16:20:46.194Z,103307.14
2019-05-14T16:23:18.699Z,103300.70
2019-05-14T16:25:48.590Z,103296.58
2019-05-14T16:28:19.778Z,103296.11
2019-05-14T16:30:52.685Z,103289.59
2019-05-14T16:33:23.876Z,103290.50
2019-05-14T16:35:54.176Z,103293.05
2019-05-14T16:38:28.608Z,103284.88
2019-05-14T16:40:59.616Z,103285.11
2019-05-14T16:43:32.458Z,103293.65
2019-05-14T16:46:02.341Z,103288.00
2019-05-14T16:48:34.142Z,103285.93
2019-05-14T16:51:04.361Z,103289.66
2019-05-14T16:53:34.617Z,103287.66
2019-05-14T16:56:04.900Z,103276.81
2019-05-14T16:58:35.258Z,103276.25
2019-05-14T17:01:05.489Z,103272.40
2019-05-14T17:03:35.584Z,103266.80
2019-05-14T17:06:05.866Z,103265.07
2019-05-14T17:08:36.168Z,103267.44
2019-05-14T17:11:08.690Z,103266.67
2019-05-14T17:13:38.446Z,103259.15
2019-05-14T17:16:08.901Z,103263.25
2019-05-14T17:18:39.063Z,103262.28
2019-05-14T17:21:10.220Z,103263.00
2019-05-14T17:23:40.448Z,103253.72
2019-05-14T17:26:10.572Z,103259.98
2019-05-14T17:28:40.922Z,103259.29
2019-05-14T17:31:11.005Z,103247.14
2019-05-14T17:33:41.155Z,103250.83
2019-05-14T17:36:11.335Z,103244.09
2019-05-14T17:38:41.505Z,103248.37
2019-05-14T17:41:13.540Z,103245.84
2019-05-14T17:43:43.818Z,103247.42
2019-05-14T17:46:13.954Z,103250.23
2019-05-14T17:48:44.252Z,103240.97
2019-05-14T17:51:14.386Z,103245.35
2019-05-14T17:53:48.677Z,103239.00
2019-05-14T17:56:22.860Z,103237.94
2019-05-14T17:58:52.417Z,103236.54
2019-05-14T18:01:22.632Z,103233.77
2019-05-14T18:03:54.680Z,103228.41
2019-05-14T18:06:28.585Z,103237.04
2019-05-14T18:08:58.660Z,103226.54
2019-05-14T18:11:29.074Z,103224.97
2019-05-14T18:14:00.813Z,103227.31
2019-05-14T18:16:31.018Z,103227.64
2019-05-14T18:19:01.395Z,103233.92
2019-05-14T18:21:31.731Z,103245.02
2019-05-14T18:24:05.123Z,103244.69
2019-05-14T18:26:35.309Z,103244.84
2019-05-14T18:29:05.514Z,103241.56
2019-05-14T18:31:35.791Z,103246.41
2019-05-14T18:34:06.016Z,103240.14
2019-05-14T18:36:39.302Z,103243.18
2019-05-14T18:39:12.110Z,103244.89
2019-05-14T18:41:43.935Z,103242.95
2019-05-14T18:44:15.145Z,103244.67
2019-05-14T18:46:45.442Z,103241.16
2019-05-14T18:49:15.746Z,103238.63
2019-05-14T18:51:50.590Z,103234.70
2019-05-14T18:54:20.799Z,103237.21
2019-05-14T18:56:51.012Z,103238.78
2019-05-14T18:59:21.672Z,103228.06
2019-05-14T19:01:53.922Z,103231.70
2019-05-14T19:04:27.847Z,103234.44
2019-05-14T19:06:59.071Z,103235.68
2019-05-14T19:09:29.405Z,103231.17
2019-05-14T19:11:59.837Z,103236.52
2019-05-14T19:14:31.166Z,103231.55
2019-05-14T19:17:03.907Z,103230.03
2019-05-14T19:19:36.003Z,103234.03
2019-05-14T19:22:08.085Z,103233.20
2019-05-14T19:24:38.921Z,103236.62
2019-05-14T19:27:09.860Z,103235.97
2019-05-14T19:29:44.333Z,103228.72
2019-05-14T19:32:15.878Z,103227.58
2019-05-14T19:34:49.455Z,103227.14
2019-05-14T19:37:24.440Z,103224.00
2019-05-14T19:39:55.331Z,103222.68
2019-05-14T19:42:28.859Z,103223.73
2019-05-14T19:45:00.922Z,103230.69
2019-05-14T19:47:32.007Z,103233.17
2019-05-14T19:50:08.917Z,103230.03
2019-05-14T19:52:42.894Z,103229.25
2019-05-14T19:55:18.890Z,103230.36
2019-05-14T19:57:49.906Z,103230.28
2019-05-14T20:00:29.853Z,103232.53
2019-05-14T20:03:02.577Z,103232.00
2019-05-14T20:05:34.193Z,103239.25
2019-05-14T20:08:08.833Z,103241.78
2019-05-14T20:10:40.625Z,103238.11
2019-05-14T20:13:13.216Z,103241.39
2019-05-14T20:15:43.734Z,103243.62
2019-05-14T20:18:16.195Z,103235.68
2019-05-14T20:20:49.249Z,103232.20
2019-05-14T20:23:21.677Z,103228.30
2019-05-14T20:25:52.195Z,103223.23
2019-05-14T20:28:22.509Z,103225.22
2019-05-14T20:30:52.603Z,103224.53
2019-05-14T20:33:22.854Z,103223.30
2019-05-14T20:35:53.031Z,103225.47
2019-05-14T20:38:23.255Z,103220.09
2019-05-14T20:40:53.377Z,103220.02
2019-05-14T20:43:23.572Z,103214.70
2019-05-14T20:45:53.663Z,103211.31
2019-05-14T20:48:23.804Z,103214.92
2019-05-14T20:50:53.989Z,103211.30
2019-05-14T20:53:24.199Z,103211.00
2019-05-14T20:55:54.374Z,103213.32
2019-05-14T20:58:24.787Z,103205.91
2019-05-14T21:00:55.240Z,103204.68
2019-05-14T21:03:25.362Z,103209.38
2019-05-14T21:05:58.331Z,103207.14
2019-05-14T21:08:29.554Z,103203.11
2019-05-14T21:11:00.011Z,103201.86
2019-05-14T21:13:31.793Z,103199.38
2019-05-14T21:16:03.657Z,103199.11
2019-05-14T21:18:35.376Z,103201.97
2019-05-14T21:21:11.079Z,103203.77
2019-05-14T21:23:40.808Z,103204.64
2019-05-14T21:26:11.100Z,103203.94
2019-05-14T21:28:41.300Z,103204.29
2019-05-14T21:31:11.528Z,103201.86
2019-05-14T21:33:43.306Z,103204.48
2019-05-14T21:36:13.571Z,103201.50
2019-05-14T21:38:43.788Z,103205.06
2019-05-14T21:41:14.057Z,103203.34
2019-05-14T21:43:44.312Z,103203.87
2019-05-14T21:46:14.583Z,103200.81
2019-05-14T21:48:44.777Z,103205.81
2019-05-14T21:51:14.978Z,103203.93
2019-05-14T21:53:45.124Z,103199.61
2019-05-14T21:56:15.340Z,103199.98
2019-05-14T21:58:48.602Z,103195.63
2019-05-14T22:01:19.226Z,103196.28
2019-05-14T22:03:49.903Z,103199.81
2019-05-14T22:06:20.107Z,103191.89
2019-05-14T22:08:50.218Z,103197.33
2019-05-14T22:11:20.541Z,103192.61
2019-05-14T22:13:50.807Z,103192.11
2019-05-14T22:16:21.155Z,103191.78
2019-05-14T22:18:51.377Z,103188.48
2019-05-14T22:21:21.577Z,103187.38
2019-05-14T22:23:51.943Z,103182.75
2019-05-14T22:26:22.210Z,103185.06
2019-05-14T22:28:52.425Z,103187.23
2019-05-14T22:31:22.643Z,103187.80
2019-05-14T22:33:53.078Z,103181.84
2019-05-14T22:36:23.279Z,103177.41
2019-05-14T22:38:53.531Z,103178.19
2019-05-14T22:41:23.790Z,103184.00
2019-05-14T22:43:57.631Z,103181.59
2019-05-14T22:46:28.098Z,103185.70
2019-05-14T22:48:58.761Z,103173.58
2019-05-14T22:51:28.921Z,103169.13
2019-05-14T22:53:59.290Z,103170.59
2019-05-14T22:56:29.588Z,103181.34
2019-05-14T22:58:59.765Z,103169.71
2019-05-14T23:01:29.922Z,103175.56
2019-05-14T23:04:01.977Z,103172.92
2019-05-14T23:06:33.100Z,103177.25
2019-05-14T23:09:04.225Z,103171.16
2019-05-14T23:11:34.462Z,103174.77
2019-05-14T23:14:04.745Z,103168.92
2019-05-14T23:16:39.416Z,103170.54
2019-05-14T23:19:08.008Z,103178.71
2019-05-14T23:21:39.091Z,103172.30
2019-05-14T23:24:09.490Z,103171.63
2019-05-14T23:26:39.671Z,103168.64
2019-05-14T23:29:09.898Z,103167.92
2019-05-14T23:31:40.019Z,103167.84
2019-05-14T23:34:10.301Z,103161.44
2019-05-14T23:36:44.899Z,103172.98
2019-05-14T23:39:18.201Z,103167.05
2019-05-14T23:41:49.283Z,103167.16
2019-05-14T23:44:19.490Z,103162.39
2019-05-14T23:46:49.654Z,103161.34
2019-05-14T23:49:19.866Z,103161.11
2019-05-14T23:51:50.214Z,103160.05
2019-05-14T23:54:20.386Z,103156.14
2019-05-14T23:56:50.610Z,103155.80
2019-05-14T23:59:20.866Z,103152.53
